Sites météorologiques /Documentations/ Programmes:

Météo Québec
Site web version 2
Modèle de Meteotemplate

CoCoRaHS Canada
Station CAN-QC-39

En Alerte
*** Système d'alerte
en urgence ***

Québec en Alerte

Météo Alerte Québec

Météo Centre

État des routes
Québec 511

Orage Québec

Québec Vortex
chasseurs de tempêtes

Hydro Météo (info-rivière)

Avalanche Québec

Agrométéo Québec

Bulletin des agriculteurs secteur Québec

Réseau Météo-Québec

Réseau Météo des Provinces Atlantiques

Réseau Météo Ontario

Séismes Canada
l'Est du Canada

Fire Smoke Canada

Canwarn Québec

Climat Québec

Environnement Canada

MétéoMédia

Leuven Template

Réseau de transport de la Capitale (RTC)


Équipements et logiciels de la station:

Davis Pro 2

Weather Display

Asus/Intel

Rapidenet Canada

Rapports d'observations METAR régionales et provinciales

   
CWPD - L'ÉTAPE
Mise à jour: 20-02-2019 01:00
  
  
   
Température: -21°C
Point de rosée: -23°C
Humidité relative: 84%
CWPD 200500Z AUTO 12002KT M21/M23 RMK AO1 SLP310 T12051234 51008
CYBG - BAGOTVILLE
Mise à jour: 20-02-2019 01:00
  
  
   
Température: -16°C
Facteur éolien: -26°C
Point de rosée: -22°C
Humidité relative: 60%
Pression barométrique: 103.01 kPa
Nuages: Généralement nuageux
visibilité: 40.2 km
Détails des nuages: Généralement nuageux 3500 ft
CYBG 200500Z 27012KT 25SM BKN035 M16/M22 A3042 RMK SC6 SLP317
CYRJ - ROBERVAL
Mise à jour: 19-02-2019 22:00
PAS actuel
  
  
   
Température: -18°C
Facteur éolien: -28°C
Point de rosée: -23°C
Humidité relative: 65%
Pression barométrique: 102.88 kPa
Nuages: Quelques nuages
visibilité: 40.2 km
Détails des nuages: Quelques nuages 3000 ft
CYRJ 200200Z 24011KT 25SM FEW030 M18/M23 A3038 RMK SC1 SC TR LAST OBS/NEXT 201000 UTC SLP310
CYRQ - TROIS-RIVIÈRES
Mise à jour: 20-02-2019 01:00
  
  
   
Température: -22°C
Point de rosée: -25°C
Humidité relative: 77%
Pression barométrique: 103.39 kPa
Nuages: Dégagé
visibilité: 14.5 km
Détails des nuages: Dégagé
CYRQ 200500Z AUTO 00000KT 9SM CLR M22/M25 A3053 RMK SLP347
CYYY - MONT-JOLI
Mise à jour: 20-02-2019 01:00
  
  
   
Température: -15°C
Facteur éolien: -27°C
Point de rosée: -22°C
Humidité relative: 55%
Pression barométrique: 102.78 kPa
Nuages: Généralement nuageux
visibilité: 24.1 km
Détails des nuages: Généralement nuageux 3700 ft
CYYY 200500Z 31019G29KT 15SM DRSN BKN037 M15/M22 A3035 RMK SC7 SLP284
CYUL - MONTRÉAL
Mise à jour: 20-02-2019 01:00
  
  
   
Température: -15°C
Facteur éolien: -21°C
Point de rosée: -19°C
Humidité relative: 72%
Pression barométrique: 103.45 kPa
Nuages: Dégagé
visibilité: 24.1 km
Détails des nuages: Dégagé
CYUL 200500Z 21005KT 15SM SKC M15/M19 A3055 RMK SLP352
CYQB - QUÉBEC
Mise à jour: 20-02-2019 01:00
  
  
   
Température: -19°C
Facteur éolien: -29°C
Point de rosée: -23°C
Humidité relative: 71%
Pression barométrique: 103.28 kPa
Nuages: Dégagé
visibilité: 24.1 km
Détails des nuages: Dégagé
CYQB 200500Z 22011KT 15SM SKC M19/M23 A3050 RMK SLP337
CYRJ - SAGUENUAY
Mise à jour: 19-02-2019 22:00
PAS actuel
  
  
   
Température: -18°C
Facteur éolien: -28°C
Point de rosée: -23°C
Humidité relative: 65%
Pression barométrique: 102.88 kPa
Nuages: Quelques nuages
visibilité: 40.2 km
Détails des nuages: Quelques nuages 3000 ft
CYRJ 200200Z 24011KT 25SM FEW030 M18/M23 A3038 RMK SC1 SC TR LAST OBS/NEXT 201000 UTC SLP310
CWZS - AMQUI
Mise à jour: 20-02-2019 01:00
  
  
   
Température: -17°C
Facteur éolien: -26°C
Point de rosée: -23°C
Humidité relative: 60%
CWZS 200500Z AUTO 32010G18KT M17/M23 RMK AO1 PK WND 29025/0407 SLP261 T11681228 52006
CWOC - NEW CARLISLE
Mise à jour: 20-02-2019 01:00
  
  
   
Température: -17°C
Facteur éolien: -27°C
Point de rosée: -24°C
Humidité relative: 55%
CWOC 200500Z AUTO 30011G22KT M17/M24 RMK AO1 PK WND 28025/0415 SLP228 T11651243 51019
CYBX - BLANC-SABLON
Mise à jour: 20-02-2019 01:00
  
  
   
Température: -22°C
Facteur éolien: -34°C
Point de rosée: -28°C
Humidité relative: 58%
Pression barométrique: 100.37 kPa
Nuages: Dégagé
visibilité: 24.1 km
Détails des nuages: Dégagé
CYBX 200500Z 30015KT 15SM SKC M22/M28 A2964 RMK SLP043
CYAD - BAIE-JAMES
Mise à jour: 30-10-2015 16:00
PAS actuel
  
  
   
Température: -2°C
Facteur éolien: -8°C
Point de rosée: -4°C
Humidité relative: 86%
Pression barométrique: 100.51 kPa
Nuages: Nuageux
visibilité: 9.7 km
Détails des nuages: Nuageux 1200 ft
CYAD 302000Z 31011G17KT 6SM -SHSN OVC012 M02/M04 A2968 RMK SC7 LAST OBS/NEXT 021200 UTC SLP066
CYMT - CHIBOUGAMAU
Mise à jour: 20-02-2019 01:00
  
  
   
Température: -27°C
Point de rosée: -29°C
Humidité relative: 83%
Pression barométrique: 102.64 kPa
Nuages: Dégagé
visibilité: 14.5 km
Détails des nuages: Dégagé
CYMT 200500Z AUTO 18002KT 9SM CLR M27/M29 A3031 RMK SLP312
CYGR - ILES-DE-LA-MADELEINE
Mise à jour: 19-02-2019 23:00
PAS actuel
  
  
   
Température: -14°C
Facteur éolien: -26°C
Point de rosée: -21°C
Humidité relative: 56%
Pression barométrique: 101.76 kPa
Nuages: Généralement nuageux
visibilité: 24.1 km
Détails des nuages: Généralement nuageux 4200 ft
CYGR 200300Z 30022G32KT 15SM -SN BKN042 M14/M21 A3005 RMK SC5 LAST STFD OBS/NEXT 201000 UTC SLP179
CWBY - PORT-MENIER
Mise à jour: 20-02-2019 01:00
  
  
   
Température: -18°C
Facteur éolien: -27°C
Point de rosée: -24°C
Humidité relative: 60%
CWBY 200500Z AUTO 30009G15KT M18/M24 RMK AO1 SOG 31 3018 PK WND 28023/0421 SLP195 T11801239
CYZV - SEPT-ILES
Mise à jour: 20-02-2019 01:00
  
  
   
Température: -23°C
Point de rosée: -31°C
Humidité relative: 48%
Pression barométrique: 102.3 kPa
Nuages: Quelques nuages
visibilité: 24.1 km
Détails des nuages: Quelques nuages 5000 ft
CYZV 200500Z VRB02KT 15SM FEW050 M23/M31 A3021 RMK SC1 SC TR SLP238
CYGP - SHERBROOKE
Mise à jour: 20-02-2019 01:00
  
  
   
Température: -17°C
Facteur éolien: -28°C
Point de rosée: -25°C
Humidité relative: 50%
Pression barométrique: 102.03 kPa
Nuages: Quelques nuages
visibilité: 24.1 km
Détails des nuages: Quelques nuages 4000 ft
CYGP 200500Z 29013G18KT 240V320 15SM FEW040 M17/M25 A3013 RMK SC1 SLP209
CYZV - GATINEAU
Mise à jour: 20-02-2019 01:00
  
  
   
Température: -23°C
Point de rosée: -31°C
Humidité relative: 48%
Pression barométrique: 102.3 kPa
Nuages: Quelques nuages
visibilité: 24.1 km
Détails des nuages: Quelques nuages 5000 ft
CYZV 200500Z VRB02KT 15SM FEW050 M23/M31 A3021 RMK SC1 SC TR SLP238
CYOW - OTTAWA
Mise à jour: 20-02-2019 01:00
  
  
   
Température: -15°C
Facteur éolien: -22°C
Point de rosée: -18°C
Humidité relative: 78%
Pression barométrique: 103.42 kPa
Nuages: Dégagé
visibilité: 24.1 km
Détails des nuages: Dégagé
CYOW 200500Z 22006KT 15SM SKC M15/M18 A3054 RMK SLP353
  

Script original développé par  Saratoga-weather.org Adapté pour le modèle par  Weerstation Leuven

Les données sont envoyées via ces sites météo:

WeatherCloud

Weather Underground

Quebec Weather Network

AWEKAS

HAMweather, WeatherForYou, PWS Weather